sensor_id;sensor_type;location;lat;lon;timestamp;P1;durP1;ratioP1;P2;durP2;ratioP2
67930;SDS011;63902;52.000;5.954;2023-06-22T00:00:12;4.20;;;1.98;;
67930;SDS011;63902;52.000;5.954;2023-06-22T00:01:13;5.15;;;1.98;;
67930;SDS011;63902;52.000;5.954;2023-06-22T00:02:15;4.40;;;2.00;;
67930;SDS011;63902;52.000;5.954;2023-06-22T00:03:24;4.85;;;2.10;;
67930;SDS011;63902;52.000;5.954;2023-06-22T00:04:26;3.67;;;1.85;;
67930;SDS011;63902;52.000;5.954;2023-06-22T00:05:27;5.45;;;2.03;;
67930;SDS011;63902;52.000;5.954;2023-06-22T00:06:29;5.07;;;2.28;;
67930;SDS011;63902;52.000;5.954;2023-06-22T00:07:30;5.07;;;2.47;;
67930;SDS011;63902;52.000;5.954;2023-06-22T00:08:31;5.95;;;2.30;;
67930;SDS011;63902;52.000;5.954;2023-06-22T00:09:31;6.00;;;2.40;;
67930;SDS011;63902;52.000;5.954;2023-06-22T00:10:33;4.95;;;2.47;;
67930;SDS011;63902;52.000;5.954;2023-06-22T00:11:35;5.97;;;2.45;;
67930;SDS011;63902;52.000;5.954;2023-06-22T00:14:56;4.53;;;2.60;;
67930;SDS011;63902;52.000;5.954;2023-06-22T00:15:57;4.30;;;2.17;;
67930;SDS011;63902;52.000;5.954;2023-06-22T00:16:58;8.07;;;2.70;;
67930;SDS011;63902;52.000;5.954;2023-06-22T00:19:10;5.65;;;3.03;;
67930;SDS011;63902;52.000;5.954;2023-06-22T00:20:11;5.55;;;2.60;;
67930;SDS011;63902;52.000;5.954;2023-06-22T00:24:52;3.92;;;2.38;;
67930;SDS011;63902;52.000;5.954;2023-06-22T00:26:07;7.53;;;2.83;;
67930;SDS011;63902;52.000;5.954;2023-06-22T00:27:07;5.38;;;2.90;;
67930;SDS011;63902;52.000;5.954;2023-06-22T00:31:39;8.25;;;3.22;;
67930;SDS011;63902;52.000;5.954;2023-06-22T01:06:45;6.47;;;3.03;;
67930;SDS011;63902;52.000;5.954;2023-06-22T01:08:00;5.88;;;2.80;;
67930;SDS011;63902;52.000;5.954;2023-06-22T01:09:06;4.78;;;2.35;;
67930;SDS011;63902;52.000;5.954;2023-06-22T01:10:14;4.45;;;2.60;;
67930;SDS011;63902;52.000;5.954;2023-06-22T01:11:20;4.63;;;2.42;;
67930;SDS011;63902;52.000;5.954;2023-06-22T01:12:26;5.38;;;2.65;;
67930;SDS011;63902;52.000;5.954;2023-06-22T01:13:32;7.25;;;2.72;;
67930;SDS011;63902;52.000;5.954;2023-06-22T01:14:38;6.35;;;3.05;;
67930;SDS011;63902;52.000;5.954;2023-06-22T01:15:44;5.93;;;2.92;;
67930;SDS011;63902;52.000;5.954;2023-06-22T01:16:49;5.85;;;3.03;;
67930;SDS011;63902;52.000;5.954;2023-06-22T01:17:53;5.75;;;2.53;;
67930;SDS011;63902;52.000;5.954;2023-06-22T01:18:57;6.53;;;2.75;;
67930;SDS011;63902;52.000;5.954;2023-06-22T01:20:00;5.80;;;2.90;;
67930;SDS011;63902;52.000;5.954;2023-06-22T05:29:20;19.08;;;11.95;;
67930;SDS011;63902;52.000;5.954;2023-06-22T05:30:24;17.92;;;11.95;;
67930;SDS011;63902;52.000;5.954;2023-06-22T12:05:05;7.50;;;5.13;;
67930;SDS011;63902;52.000;5.954;2023-06-22T12:06:06;8.23;;;5.32;;
67930;SDS011;63902;52.000;5.954;2023-06-22T12:07:07;6.97;;;5.28;;
67930;SDS011;63902;52.000;5.954;2023-06-22T12:08:07;6.72;;;5.22;;
67930;SDS011;63902;52.000;5.954;2023-06-22T12:09:08;9.05;;;5.30;;
67930;SDS011;63902;52.000;5.954;2023-06-22T12:10:08;10.55;;;5.55;;
67930;SDS011;63902;52.000;5.954;2023-06-22T12:11:09;8.15;;;5.85;;
67930;SDS011;63902;52.000;5.954;2023-06-22T12:12:10;10.32;;;5.93;;
67930;SDS011;63902;52.000;5.954;2023-06-22T12:13:10;10.30;;;5.93;;
67930;SDS011;63902;52.000;5.954;2023-06-22T12:14:11;8.38;;;6.10;;
67930;SDS011;63902;52.000;5.954;2023-06-22T12:15:11;7.05;;;5.28;;
67930;SDS011;63902;52.000;5.954;2023-06-22T12:16:12;8.00;;;5.90;;
67930;SDS011;63902;52.000;5.954;2023-06-22T12:17:13;7.53;;;5.78;;
67930;SDS011;63902;52.000;5.954;2023-06-22T12:18:13;9.98;;;6.95;;
67930;SDS011;63902;52.000;5.954;2023-06-22T12:19:14;10.10;;;5.95;;
67930;SDS011;63902;52.000;5.954;2023-06-22T12:22:36;10.45;;;7.53;;
67930;SDS011;63902;52.000;5.954;2023-06-22T12:23:37;9.30;;;6.63;;
67930;SDS011;63902;52.000;5.954;2023-06-22T12:24:38;14.15;;;6.80;;
67930;SDS011;63902;52.000;5.954;2023-06-22T12:25:38;11.43;;;6.53;;
67930;SDS011;63902;52.000;5.954;2023-06-22T12:26:39;10.65;;;6.82;;
67930;SDS011;63902;52.000;5.954;2023-06-22T12:27:39;10.35;;;6.65;;
67930;SDS011;63902;52.000;5.954;2023-06-22T12:28:40;10.25;;;6.90;;
67930;SDS011;63902;52.000;5.954;2023-06-22T12:29:40;10.82;;;7.15;;
67930;SDS011;63902;52.000;5.954;2023-06-22T12:30:41;11.43;;;7.20;;
67930;SDS011;63902;52.000;5.954;2023-06-22T12:31:41;13.02;;;7.50;;
67930;SDS011;63902;52.000;5.954;2023-06-22T12:32:42;10.13;;;7.07;;
67930;SDS011;63902;52.000;5.954;2023-06-22T12:33:42;10.95;;;7.43;;
67930;SDS011;63902;52.000;5.954;2023-06-22T12:34:43;10.68;;;6.72;;
67930;SDS011;63902;52.000;5.954;2023-06-22T12:35:45;12.63;;;7.20;;
67930;SDS011;63902;52.000;5.954;2023-06-22T12:36:46;11.18;;;7.18;;
67930;SDS011;63902;52.000;5.954;2023-06-22T12:37:48;9.63;;;6.88;;
67930;SDS011;63902;52.000;5.954;2023-06-22T12:38:48;12.90;;;7.25;;
67930;SDS011;63902;52.000;5.954;2023-06-22T12:39:49;10.43;;;7.40;;
67930;SDS011;63902;52.000;5.954;2023-06-22T12:40:49;9.70;;;7.05;;
67930;SDS011;63902;52.000;5.954;2023-06-22T12:41:50;10.57;;;6.95;;
67930;SDS011;63902;52.000;5.954;2023-06-22T12:42:50;11.48;;;7.45;;
67930;SDS011;63902;52.000;5.954;2023-06-22T12:43:51;13.77;;;7.68;;
67930;SDS011;63902;52.000;5.954;2023-06-22T12:44:51;9.45;;;7.60;;
67930;SDS011;63902;52.000;5.954;2023-06-22T12:45:52;10.68;;;7.90;;
67930;SDS011;63902;52.000;5.954;2023-06-22T12:46:52;12.60;;;8.02;;
67930;SDS011;63902;52.000;5.954;2023-06-22T12:47:53;14.75;;;7.75;;
67930;SDS011;63902;52.000;5.954;2023-06-22T12:48:54;11.52;;;7.55;;
67930;SDS011;63902;52.000;5.954;2023-06-22T12:49:54;10.68;;;7.70;;
67930;SDS011;63902;52.000;5.954;2023-06-22T12:50:55;11.02;;;6.95;;
67930;SDS011;63902;52.000;5.954;2023-06-22T12:51:55;13.25;;;7.45;;
67930;SDS011;63902;52.000;5.954;2023-06-22T12:52:57;11.45;;;7.55;;
67930;SDS011;63902;52.000;5.954;2023-06-22T12:53:58;11.23;;;7.47;;
67930;SDS011;63902;52.000;5.954;2023-06-22T12:54:58;11.20;;;7.28;;
67930;SDS011;63902;52.000;5.954;2023-06-22T12:55:59;14.23;;;8.40;;
67930;SDS011;63902;52.000;5.954;2023-06-22T12:56:59;11.93;;;7.78;;
67930;SDS011;63902;52.000;5.954;2023-06-22T12:58:01;11.18;;;8.10;;
67930;SDS011;63902;52.000;5.954;2023-06-22T12:59:02;9.18;;;7.32;;
67930;SDS011;63902;52.000;5.954;2023-06-22T13:00:03;16.42;;;7.72;;
67930;SDS011;63902;52.000;5.954;2023-06-22T13:01:05;15.02;;;7.32;;
67930;SDS011;63902;52.000;5.954;2023-06-22T13:02:05;11.73;;;7.45;;
67930;SDS011;63902;52.000;5.954;2023-06-22T13:03:06;9.35;;;7.10;;
67930;SDS011;63902;52.000;5.954;2023-06-22T13:04:06;9.85;;;6.97;;
67930;SDS011;63902;52.000;5.954;2023-06-22T13:05:07;11.57;;;7.32;;
67930;SDS011;63902;52.000;5.954;2023-06-22T13:06:08;11.10;;;7.25;;
67930;SDS011;63902;52.000;5.954;2023-06-22T13:07:08;9.68;;;7.13;;
67930;SDS011;63902;52.000;5.954;2023-06-22T13:08:10;10.90;;;7.03;;
67930;SDS011;63902;52.000;5.954;2023-06-22T13:09:11;12.93;;;7.90;;
67930;SDS011;63902;52.000;5.954;2023-06-22T13:10:11;11.07;;;7.53;;
67930;SDS011;63902;52.000;5.954;2023-06-22T13:11:12;14.10;;;7.70;;
67930;SDS011;63902;52.000;5.954;2023-06-22T13:12:12;10.27;;;7.13;;
67930;SDS011;63902;52.000;5.954;2023-06-22T13:13:13;11.43;;;6.82;;
67930;SDS011;63902;52.000;5.954;2023-06-22T13:14:13;13.60;;;8.40;;
67930;SDS011;63902;52.000;5.954;2023-06-22T13:15:14;11.48;;;8.13;;
67930;SDS011;63902;52.000;5.954;2023-06-22T13:16:15;14.07;;;7.68;;
67930;SDS011;63902;52.000;5.954;2023-06-22T13:17:15;11.15;;;7.85;;
67930;SDS011;63902;52.000;5.954;2023-06-22T13:18:16;10.00;;;7.80;;
67930;SDS011;63902;52.000;5.954;2023-06-22T13:19:16;11.00;;;8.35;;
67930;SDS011;63902;52.000;5.954;2023-06-22T13:20:17;13.35;;;8.15;;
67930;SDS011;63902;52.000;5.954;2023-06-22T13:21:17;12.27;;;8.07;;
67930;SDS011;63902;52.000;5.954;2023-06-22T13:22:28;14.63;;;8.10;;
67930;SDS011;63902;52.000;5.954;2023-06-22T13:23:31;11.73;;;7.75;;
67930;SDS011;63902;52.000;5.954;2023-06-22T13:24:31;14.20;;;8.68;;
67930;SDS011;63902;52.000;5.954;2023-06-22T13:25:32;8.85;;;7.72;;
67930;SDS011;63902;52.000;5.954;2023-06-22T13:26:33;15.25;;;9.00;;
67930;SDS011;63902;52.000;5.954;2023-06-22T13:27:33;10.95;;;7.88;;
67930;SDS011;63902;52.000;5.954;2023-06-22T13:28:34;14.82;;;8.95;;
67930;SDS011;63902;52.000;5.954;2023-06-22T13:29:38;18.55;;;8.10;;
67930;SDS011;63902;52.000;5.954;2023-06-22T13:30:38;11.65;;;8.40;;
67930;SDS011;63902;52.000;5.954;2023-06-22T13:31:39;12.70;;;8.48;;
67930;SDS011;63902;52.000;5.954;2023-06-22T13:32:39;15.07;;;8.90;;
67930;SDS011;63902;52.000;5.954;2023-06-22T13:33:43;12.10;;;8.57;;
67930;SDS011;63902;52.000;5.954;2023-06-22T13:34:43;25.23;;;8.95;;
67930;SDS011;63902;52.000;5.954;2023-06-22T13:35:44;12.98;;;9.27;;
67930;SDS011;63902;52.000;5.954;2023-06-22T13:36:44;12.93;;;9.30;;
67930;SDS011;63902;52.000;5.954;2023-06-22T13:37:45;13.00;;;8.43;;
67930;SDS011;63902;52.000;5.954;2023-06-22T13:38:47;16.58;;;9.48;;
67930;SDS011;63902;52.000;5.954;2023-06-22T13:39:47;11.90;;;8.60;;
67930;SDS011;63902;52.000;5.954;2023-06-22T13:40:48;13.15;;;9.02;;
67930;SDS011;63902;52.000;5.954;2023-06-22T13:41:50;14.23;;;9.20;;
67930;SDS011;63902;52.000;5.954;2023-06-22T13:42:51;14.27;;;8.50;;
67930;SDS011;63902;52.000;5.954;2023-06-22T13:43:51;13.35;;;9.57;;
67930;SDS011;63902;52.000;5.954;2023-06-22T13:44:52;11.82;;;9.25;;
67930;SDS011;63902;52.000;5.954;2023-06-22T13:45:52;13.05;;;9.63;;
67930;SDS011;63902;52.000;5.954;2023-06-22T13:46:53;13.23;;;9.02;;
67930;SDS011;63902;52.000;5.954;2023-06-22T13:47:54;13.20;;;9.63;;
67930;SDS011;63902;52.000;5.954;2023-06-22T13:48:54;14.32;;;10.20;;
67930;SDS011;63902;52.000;5.954;2023-06-22T13:49:55;13.13;;;9.18;;
67930;SDS011;63902;52.000;5.954;2023-06-22T13:50:55;13.98;;;10.02;;
67930;SDS011;63902;52.000;5.954;2023-06-22T13:51:56;13.55;;;10.07;;
67930;SDS011;63902;52.000;5.954;2023-06-22T13:52:56;16.15;;;10.30;;
67930;SDS011;63902;52.000;5.954;2023-06-22T13:53:58;17.48;;;10.45;;
67930;SDS011;63902;52.000;5.954;2023-06-22T13:54:59;14.55;;;10.43;;
67930;SDS011;63902;52.000;5.954;2023-06-22T13:55:59;13.77;;;9.93;;
67930;SDS011;63902;52.000;5.954;2023-06-22T13:57:00;17.42;;;10.63;;
67930;SDS011;63902;52.000;5.954;2023-06-22T13:58:00;12.70;;;9.60;;
67930;SDS011;63902;52.000;5.954;2023-06-22T13:59:01;14.52;;;10.60;;
67930;SDS011;63902;52.000;5.954;2023-06-22T14:00:02;13.57;;;10.48;;
67930;SDS011;63902;52.000;5.954;2023-06-22T14:01:02;12.23;;;10.15;;
67930;SDS011;63902;52.000;5.954;2023-06-22T14:02:03;15.65;;;10.48;;
67930;SDS011;63902;52.000;5.954;2023-06-22T14:03:04;13.45;;;10.25;;
67930;SDS011;63902;52.000;5.954;2023-06-22T14:04:05;15.85;;;10.40;;
67930;SDS011;63902;52.000;5.954;2023-06-22T14:05:05;13.38;;;10.20;;
67930;SDS011;63902;52.000;5.954;2023-06-22T14:06:09;15.23;;;11.13;;
67930;SDS011;63902;52.000;5.954;2023-06-22T14:07:09;18.55;;;10.70;;
67930;SDS011;63902;52.000;5.954;2023-06-22T14:08:10;14.88;;;10.27;;
67930;SDS011;63902;52.000;5.954;2023-06-22T14:09:12;19.40;;;10.38;;
67930;SDS011;63902;52.000;5.954;2023-06-22T14:10:13;16.25;;;10.20;;
67930;SDS011;63902;52.000;5.954;2023-06-22T14:11:13;14.80;;;10.75;;
67930;SDS011;63902;52.000;5.954;2023-06-22T14:12:14;13.55;;;9.48;;
67930;SDS011;63902;52.000;5.954;2023-06-22T14:13:14;11.88;;;10.07;;
67930;SDS011;63902;52.000;5.954;2023-06-22T14:14:15;14.50;;;11.38;;
67930;SDS011;63902;52.000;5.954;2023-06-22T14:15:16;13.85;;;10.65;;
67930;SDS011;63902;52.000;5.954;2023-06-22T14:16:16;16.13;;;11.40;;
67930;SDS011;63902;52.000;5.954;2023-06-22T14:17:17;14.80;;;11.55;;
67930;SDS011;63902;52.000;5.954;2023-06-22T14:18:17;15.75;;;11.18;;
67930;SDS011;63902;52.000;5.954;2023-06-22T14:19:18;16.58;;;11.02;;
67930;SDS011;63902;52.000;5.954;2023-06-22T14:20:18;18.05;;;11.25;;
67930;SDS011;63902;52.000;5.954;2023-06-22T14:21:19;16.83;;;11.07;;
67930;SDS011;63902;52.000;5.954;2023-06-22T14:22:19;20.63;;;10.65;;
67930;SDS011;63902;52.000;5.954;2023-06-22T14:23:20;18.80;;;10.85;;
67930;SDS011;63902;52.000;5.954;2023-06-22T14:24:22;13.55;;;10.75;;
67930;SDS011;63902;52.000;5.954;2023-06-22T14:25:23;13.32;;;10.30;;
67930;SDS011;63902;52.000;5.954;2023-06-22T14:26:23;16.52;;;10.55;;
67930;SDS011;63902;52.000;5.954;2023-06-22T14:27:24;15.63;;;10.07;;
67930;SDS011;63902;52.000;5.954;2023-06-22T14:28:24;17.48;;;10.13;;
67930;SDS011;63902;52.000;5.954;2023-06-22T14:29:25;17.30;;;10.48;;
67930;SDS011;63902;52.000;5.954;2023-06-22T14:30:26;15.07;;;10.50;;
67930;SDS011;63902;52.000;5.954;2023-06-22T14:31:26;12.85;;;9.88;;
67930;SDS011;63902;52.000;5.954;2023-06-22T14:32:27;20.20;;;10.18;;
67930;SDS011;63902;52.000;5.954;2023-06-22T14:33:28;13.15;;;9.52;;
67930;SDS011;63902;52.000;5.954;2023-06-22T14:34:28;13.45;;;10.00;;
67930;SDS011;63902;52.000;5.954;2023-06-22T14:35:29;17.85;;;11.45;;
67930;SDS011;63902;52.000;5.954;2023-06-22T14:36:30;14.70;;;10.43;;
67930;SDS011;63902;52.000;5.954;2023-06-22T14:37:30;18.98;;;10.35;;
67930;SDS011;63902;52.000;5.954;2023-06-22T14:38:31;15.30;;;10.60;;
67930;SDS011;63902;52.000;5.954;2023-06-22T14:39:32;13.98;;;10.30;;
67930;SDS011;63902;52.000;5.954;2023-06-22T14:40:33;13.88;;;9.70;;
67930;SDS011;63902;52.000;5.954;2023-06-22T14:41:34;13.48;;;9.60;;
67930;SDS011;63902;52.000;5.954;2023-06-22T14:42:34;13.60;;;9.73;;
67930;SDS011;63902;52.000;5.954;2023-06-22T14:43:35;13.55;;;10.18;;
67930;SDS011;63902;52.000;5.954;2023-06-22T14:44:35;14.27;;;9.70;;
67930;SDS011;63902;52.000;5.954;2023-06-22T14:45:36;15.38;;;10.57;;
67930;SDS011;63902;52.000;5.954;2023-06-22T14:46:36;13.65;;;10.13;;
67930;SDS011;63902;52.000;5.954;2023-06-22T14:47:37;13.90;;;10.15;;
67930;SDS011;63902;52.000;5.954;2023-06-22T14:48:37;18.30;;;10.45;;
67930;SDS011;63902;52.000;5.954;2023-06-22T14:49:38;14.88;;;10.02;;
67930;SDS011;63902;52.000;5.954;2023-06-22T14:50:38;12.10;;;9.85;;
67930;SDS011;63902;52.000;5.954;2023-06-22T14:51:39;13.63;;;9.93;;
67930;SDS011;63902;52.000;5.954;2023-06-22T14:52:39;14.55;;;9.85;;
67930;SDS011;63902;52.000;5.954;2023-06-22T14:53:40;13.05;;;9.80;;
67930;SDS011;63902;52.000;5.954;2023-06-22T14:54:42;16.95;;;9.95;;
67930;SDS011;63902;52.000;5.954;2023-06-22T14:55:43;14.88;;;10.20;;
67930;SDS011;63902;52.000;5.954;2023-06-22T14:56:43;14.32;;;9.95;;
67930;SDS011;63902;52.000;5.954;2023-06-22T14:57:44;14.02;;;10.68;;
67930;SDS011;63902;52.000;5.954;2023-06-22T14:58:45;14.95;;;10.63;;
67930;SDS011;63902;52.000;5.954;2023-06-22T14:59:46;15.27;;;10.45;;
67930;SDS011;63902;52.000;5.954;2023-06-22T15:00:47;14.02;;;9.70;;
67930;SDS011;63902;52.000;5.954;2023-06-22T15:01:47;15.30;;;9.73;;
67930;SDS011;63902;52.000;5.954;2023-06-22T15:02:48;13.82;;;9.75;;
67930;SDS011;63902;52.000;5.954;2023-06-22T15:03:48;15.68;;;10.43;;
67930;SDS011;63902;52.000;5.954;2023-06-22T15:04:49;17.42;;;9.68;;
67930;SDS011;63902;52.000;5.954;2023-06-22T15:05:49;15.93;;;10.57;;
67930;SDS011;63902;52.000;5.954;2023-06-22T15:06:50;13.02;;;9.75;;
67930;SDS011;63902;52.000;5.954;2023-06-22T15:07:50;15.05;;;10.23;;
67930;SDS011;63902;52.000;5.954;2023-06-22T15:08:51;13.60;;;10.05;;
67930;SDS011;63902;52.000;5.954;2023-06-22T15:09:53;16.98;;;9.75;;
67930;SDS011;63902;52.000;5.954;2023-06-22T15:10:53;15.18;;;10.32;;
67930;SDS011;63902;52.000;5.954;2023-06-22T15:11:54;11.10;;;9.40;;
67930;SDS011;63902;52.000;5.954;2023-06-22T15:12:55;13.48;;;9.32;;
67930;SDS011;63902;52.000;5.954;2023-06-22T15:13:57;13.32;;;9.65;;
67930;SDS011;63902;52.000;5.954;2023-06-22T15:14:58;14.85;;;10.27;;
67930;SDS011;63902;52.000;5.954;2023-06-22T15:15:59;15.15;;;10.48;;
67930;SDS011;63902;52.000;5.954;2023-06-22T15:17:00;18.63;;;10.30;;
67930;SDS011;63902;52.000;5.954;2023-06-22T15:18:00;13.00;;;10.25;;
67930;SDS011;63902;52.000;5.954;2023-06-22T15:19:01;15.18;;;9.38;;
67930;SDS011;63902;52.000;5.954;2023-06-22T15:20:02;14.65;;;10.38;;
67930;SDS011;63902;52.000;5.954;2023-06-22T15:21:03;14.65;;;10.82;;
67930;SDS011;63902;52.000;5.954;2023-06-22T15:22:04;15.48;;;10.93;;
67930;SDS011;63902;52.000;5.954;2023-06-22T15:23:06;17.00;;;10.88;;
67930;SDS011;63902;52.000;5.954;2023-06-22T15:24:06;21.27;;;11.05;;
67930;SDS011;63902;52.000;5.954;2023-06-22T15:25:09;16.83;;;11.40;;
67930;SDS011;63902;52.000;5.954;2023-06-22T15:26:09;13.45;;;10.55;;
67930;SDS011;63902;52.000;5.954;2023-06-22T15:27:10;13.23;;;10.80;;
67930;SDS011;63902;52.000;5.954;2023-06-22T15:28:10;15.50;;;11.18;;
67930;SDS011;63902;52.000;5.954;2023-06-22T15:29:11;18.95;;;11.32;;
67930;SDS011;63902;52.000;5.954;2023-06-22T15:30:11;15.43;;;12.02;;
67930;SDS011;63902;52.000;5.954;2023-06-22T15:31:12;18.23;;;11.45;;
67930;SDS011;63902;52.000;5.954;2023-06-22T15:32:12;18.17;;;11.88;;
67930;SDS011;63902;52.000;5.954;2023-06-22T15:33:13;20.02;;;12.98;;
67930;SDS011;63902;52.000;5.954;2023-06-22T15:34:14;18.58;;;12.32;;
67930;SDS011;63902;52.000;5.954;2023-06-22T15:35:14;20.00;;;13.38;;
67930;SDS011;63902;52.000;5.954;2023-06-22T15:36:15;18.08;;;12.77;;
67930;SDS011;63902;52.000;5.954;2023-06-22T15:37:15;18.58;;;12.38;;
67930;SDS011;63902;52.000;5.954;2023-06-22T15:38:16;18.17;;;13.05;;
67930;SDS011;63902;52.000;5.954;2023-06-22T15:39:16;18.75;;;13.68;;
67930;SDS011;63902;52.000;5.954;2023-06-22T15:40:18;18.35;;;13.48;;
67930;SDS011;63902;52.000;5.954;2023-06-22T15:41:19;19.60;;;14.57;;
67930;SDS011;63902;52.000;5.954;2023-06-22T15:42:19;20.95;;;13.57;;
67930;SDS011;63902;52.000;5.954;2023-06-22T15:43:20;21.13;;;13.75;;
67930;SDS011;63902;52.000;5.954;2023-06-22T15:44:20;23.73;;;13.23;;
67930;SDS011;63902;52.000;5.954;2023-06-22T15:45:21;18.00;;;13.02;;
67930;SDS011;63902;52.000;5.954;2023-06-22T15:46:22;15.88;;;13.00;;
67930;SDS011;63902;52.000;5.954;2023-06-22T15:47:22;21.80;;;13.35;;
67930;SDS011;63902;52.000;5.954;2023-06-22T15:48:23;18.80;;;13.38;;
67930;SDS011;63902;52.000;5.954;2023-06-22T15:49:24;18.73;;;13.45;;
67930;SDS011;63902;52.000;5.954;2023-06-22T15:50:24;19.23;;;14.00;;
67930;SDS011;63902;52.000;5.954;2023-06-22T15:51:25;17.42;;;13.20;;
67930;SDS011;63902;52.000;5.954;2023-06-22T15:52:25;17.90;;;13.25;;
67930;SDS011;63902;52.000;5.954;2023-06-22T15:53:26;20.92;;;13.63;;
67930;SDS011;63902;52.000;5.954;2023-06-22T15:54:26;17.02;;;12.35;;
67930;SDS011;63902;52.000;5.954;2023-06-22T15:55:28;16.92;;;13.20;;
67930;SDS011;63902;52.000;5.954;2023-06-22T15:56:29;17.77;;;12.60;;
67930;SDS011;63902;52.000;5.954;2023-06-22T15:57:29;17.23;;;12.35;;
67930;SDS011;63902;52.000;5.954;2023-06-22T15:58:30;17.70;;;12.25;;
67930;SDS011;63902;52.000;5.954;2023-06-22T15:59:30;16.77;;;12.30;;
67930;SDS011;63902;52.000;5.954;2023-06-22T16:00:31;18.80;;;12.23;;
67930;SDS011;63902;52.000;5.954;2023-06-22T16:01:31;15.98;;;11.85;;
67930;SDS011;63902;52.000;5.954;2023-06-22T16:02:32;16.65;;;12.20;;
67930;SDS011;63902;52.000;5.954;2023-06-22T16:03:32;17.80;;;13.05;;
67930;SDS011;63902;52.000;5.954;2023-06-22T16:04:33;15.90;;;12.40;;
67930;SDS011;63902;52.000;5.954;2023-06-22T16:05:34;19.75;;;12.40;;
67930;SDS011;63902;52.000;5.954;2023-06-22T16:06:34;17.83;;;12.35;;
67930;SDS011;63902;52.000;5.954;2023-06-22T16:07:35;16.40;;;11.98;;
67930;SDS011;63902;52.000;5.954;2023-06-22T16:08:35;18.23;;;12.85;;
67930;SDS011;63902;52.000;5.954;2023-06-22T16:09:36;19.77;;;12.90;;
67930;SDS011;63902;52.000;5.954;2023-06-22T16:10:39;21.80;;;13.00;;
67930;SDS011;63902;52.000;5.954;2023-06-22T16:11:39;20.13;;;12.25;;
67930;SDS011;63902;52.000;5.954;2023-06-22T16:12:41;16.00;;;12.60;;
67930;SDS011;63902;52.000;5.954;2023-06-22T16:13:42;16.88;;;11.88;;
67930;SDS011;63902;52.000;5.954;2023-06-22T16:14:42;16.08;;;12.70;;
67930;SDS011;63902;52.000;5.954;2023-06-22T16:15:43;17.73;;;12.50;;
67930;SDS011;63902;52.000;5.954;2023-06-22T16:16:43;20.02;;;13.30;;
67930;SDS011;63902;52.000;5.954;2023-06-22T16:17:44;19.17;;;12.27;;
67930;SDS011;63902;52.000;5.954;2023-06-22T16:18:45;23.48;;;12.63;;
67930;SDS011;63902;52.000;5.954;2023-06-22T16:19:45;17.15;;;12.40;;
67930;SDS011;63902;52.000;5.954;2023-06-22T16:20:46;16.77;;;12.98;;
67930;SDS011;63902;52.000;5.954;2023-06-22T16:21:46;17.52;;;12.63;;
67930;SDS011;63902;52.000;5.954;2023-06-22T16:22:47;18.05;;;12.88;;
67930;SDS011;63902;52.000;5.954;2023-06-22T16:23:47;18.02;;;12.15;;
67930;SDS011;63902;52.000;5.954;2023-06-22T16:24:48;16.20;;;12.60;;
67930;SDS011;63902;52.000;5.954;2023-06-22T16:25:50;17.92;;;12.52;;
67930;SDS011;63902;52.000;5.954;2023-06-22T16:26:51;18.88;;;13.15;;
67930;SDS011;63902;52.000;5.954;2023-06-22T16:27:52;16.63;;;12.23;;
67930;SDS011;63902;52.000;5.954;2023-06-22T16:28:53;16.80;;;12.98;;
67930;SDS011;63902;52.000;5.954;2023-06-22T16:29:53;17.65;;;12.98;;
67930;SDS011;63902;52.000;5.954;2023-06-22T16:30:54;18.10;;;13.10;;
67930;SDS011;63902;52.000;5.954;2023-06-22T16:31:54;17.58;;;13.18;;
67930;SDS011;63902;52.000;5.954;2023-06-22T16:32:55;16.40;;;12.43;;
67930;SDS011;63902;52.000;5.954;2023-06-22T16:33:56;19.90;;;13.10;;
67930;SDS011;63902;52.000;5.954;2023-06-22T16:34:57;18.30;;;12.02;;
67930;SDS011;63902;52.000;5.954;2023-06-22T16:35:57;19.20;;;13.43;;
67930;SDS011;63902;52.000;5.954;2023-06-22T16:36:58;17.05;;;12.73;;
67930;SDS011;63902;52.000;5.954;2023-06-22T16:37:59;13.95;;;12.23;;
67930;SDS011;63902;52.000;5.954;2023-06-22T16:38:59;15.88;;;12.48;;
67930;SDS011;63902;52.000;5.954;2023-06-22T16:40:00;17.85;;;12.95;;
67930;SDS011;63902;52.000;5.954;2023-06-22T16:41:02;16.30;;;12.45;;
67930;SDS011;63902;52.000;5.954;2023-06-22T16:42:02;20.02;;;12.35;;
67930;SDS011;63902;52.000;5.954;2023-06-22T16:43:03;16.27;;;12.00;;
67930;SDS011;63902;52.000;5.954;2023-06-22T16:44:03;16.67;;;12.20;;
67930;SDS011;63902;52.000;5.954;2023-06-22T16:45:04;16.70;;;11.77;;
67930;SDS011;63902;52.000;5.954;2023-06-22T16:46:06;20.30;;;12.25;;
67930;SDS011;63902;52.000;5.954;2023-06-22T16:47:06;15.75;;;11.65;;
67930;SDS011;63902;52.000;5.954;2023-06-22T16:48:07;22.42;;;12.82;;
67930;SDS011;63902;52.000;5.954;2023-06-22T16:49:08;18.75;;;12.10;;
67930;SDS011;63902;52.000;5.954;2023-06-22T16:50:09;16.83;;;12.38;;
67930;SDS011;63902;52.000;5.954;2023-06-22T16:51:09;17.85;;;12.20;;
67930;SDS011;63902;52.000;5.954;2023-06-22T16:52:11;20.00;;;12.18;;
67930;SDS011;63902;52.000;5.954;2023-06-22T16:53:11;17.60;;;12.30;;
67930;SDS011;63902;52.000;5.954;2023-06-22T16:54:12;20.90;;;12.13;;
67930;SDS011;63902;52.000;5.954;2023-06-22T16:55:13;22.00;;;12.63;;
67930;SDS011;63902;52.000;5.954;2023-06-22T16:56:15;16.42;;;12.55;;
67930;SDS011;63902;52.000;5.954;2023-06-22T16:57:16;20.75;;;13.43;;
67930;SDS011;63902;52.000;5.954;2023-06-22T16:58:20;21.55;;;13.23;;
67930;SDS011;63902;52.000;5.954;2023-06-22T16:59:22;18.77;;;13.32;;
67930;SDS011;63902;52.000;5.954;2023-06-22T17:00:23;20.38;;;13.10;;
67930;SDS011;63902;52.000;5.954;2023-06-22T17:01:24;16.35;;;13.30;;
67930;SDS011;63902;52.000;5.954;2023-06-22T17:02:25;17.75;;;12.27;;
67930;SDS011;63902;52.000;5.954;2023-06-22T17:03:28;17.95;;;12.95;;
67930;SDS011;63902;52.000;5.954;2023-06-22T17:04:33;19.80;;;13.48;;
67930;SDS011;63902;52.000;5.954;2023-06-22T17:05:34;19.20;;;13.25;;
67930;SDS011;63902;52.000;5.954;2023-06-22T17:06:36;19.90;;;13.95;;
67930;SDS011;63902;52.000;5.954;2023-06-22T17:07:40;18.30;;;13.70;;
67930;SDS011;63902;52.000;5.954;2023-06-22T17:08:43;18.40;;;13.25;;
67930;SDS011;63902;52.000;5.954;2023-06-22T17:09:46;21.70;;;13.85;;
67930;SDS011;63902;52.000;5.954;2023-06-22T17:10:47;20.80;;;14.18;;
67930;SDS011;63902;52.000;5.954;2023-06-22T17:11:51;20.67;;;14.48;;
67930;SDS011;63902;52.000;5.954;2023-06-22T17:12:53;19.85;;;14.27;;
67930;SDS011;63902;52.000;5.954;2023-06-22T17:13:55;17.83;;;14.05;;
67930;SDS011;63902;52.000;5.954;2023-06-22T17:14:56;21.17;;;14.32;;
67930;SDS011;63902;52.000;5.954;2023-06-22T17:15:58;19.38;;;14.10;;
67930;SDS011;63902;52.000;5.954;2023-06-22T17:17:00;21.73;;;14.05;;
67930;SDS011;63902;52.000;5.954;2023-06-22T17:18:03;17.65;;;13.32;;
67930;SDS011;63902;52.000;5.954;2023-06-22T17:19:04;18.63;;;14.27;;
67930;SDS011;63902;52.000;5.954;2023-06-22T17:20:06;19.30;;;14.40;;
67930;SDS011;63902;52.000;5.954;2023-06-22T17:21:07;21.50;;;14.10;;
67930;SDS011;63902;52.000;5.954;2023-06-22T17:22:10;18.38;;;14.07;;
67930;SDS011;63902;52.000;5.954;2023-06-22T17:23:11;22.98;;;14.45;;
67930;SDS011;63902;52.000;5.954;2023-06-22T17:24:12;22.65;;;14.20;;
67930;SDS011;63902;52.000;5.954;2023-06-22T17:25:15;25.90;;;14.38;;
67930;SDS011;63902;52.000;5.954;2023-06-22T17:26:17;20.73;;;14.90;;
67930;SDS011;63902;52.000;5.954;2023-06-22T17:27:27;18.80;;;14.65;;
67930;SDS011;63902;52.000;5.954;2023-06-22T17:28:30;21.55;;;14.13;;
67930;SDS011;63902;52.000;5.954;2023-06-22T17:29:45;19.05;;;14.27;;